Latest Weather Observations for Amberley

IDQ60901

Issued at 6:01 pm EST Tuesday 28 February 2017 (issued every 10 minutes, with the page automatically refreshed every 10 minutes)

About weather observations | Map of Brisbane area stations | Latest observations for Brisbane area | Other Formats
Station Details ID: 040004 Name: AMBERLEY AMO Lat: -27.63 Lon: 152.71 Height: 24.2 m
Data from the previous 72 hours. | See also: Recent months at Amberley
Date/Time
EST
Temp
°C
App
Temp
°C
Dew
Point
°C
Rel
Hum
%
Delta-T
°C
Wind Press
QNH
hPa
Press
MSL
hPa
Rain since
9am
mm
Dir  Spd
km/h
Gust
km/h
Spd
kts
Gust
kts
28/05:30pm 22.6 18.4 16.2 67 3.9 ESE 33 44 18 24 1014.8 1014.7 0.0
28/05:13pm 22.4 18.7 16.1 67 3.8 SE 30 48 16 26 1014.9 1014.8 0.0
28/05:01pm 21.7 16.3 17.0 74 2.9 SSE 41 59 22 32 1014.8 1014.7 0.0
28/05:00pm 21.8 16.1 17.1 74 2.9 SSE 43 59 23 32 1014.8 1014.7 0.0
28/04:56pm 22.0 16.6 17.1 74 3.0 SSE 41 59 22 32 1014.6 1014.5 0.0
28/04:49pm 22.0 16.5 17.6 76 2.7 S 43 57 23 31 1014.7 1014.6 0.0
28/04:30pm 22.5 17.2 16.2 67 3.8 S 39 54 21 29 1014.5 1014.4 0.0
28/04:17pm 24.4 20.4 16.6 61 4.8 S 33 50 18 27 1014.3 1014.2 0.0
28/04:00pm 28.4 26.5 16.7 49 7.3 ENE 22 32 12 17 1013.8 1013.7 0.0
28/03:30pm 28.5 27.0 16.2 47 7.6 ENE 19 28 10 15 1013.6 1013.5 0.0
28/03:15pm 28.7 27.7 16.7 48 7.5 ENE 17 26 9 14 1013.5 1013.4 0.0
28/03:00pm 28.8 27.4 16.6 47 7.6 E 19 28 10 15 1013.4 1013.3 0.0
28/02:30pm 30.3 28.8 16.4 43 8.7 E 19 26 10 14 1013.6 1013.5 0.0
28/02:00pm 30.8 30.5 15.4 39 9.5 SE 11 19 6 10 1013.9 1013.8 0.0
28/01:30pm 29.4 28.0 15.6 43 8.5 SE 17 22 9 12 1014.0 1013.9 0.0
28/01:00pm 30.4 29.7 15.5 40 9.2 E 13 19 7 10 1014.5 1014.4 0.0
28/12:30pm 30.2 30.2 16.3 43 8.7 ESE 11 17 6 9 1014.9 1014.8 0.0
28/12:00pm 28.0 27.5 16.0 48 7.4 E 13 26 7 14 1015.3 1015.2 0.0
28/11:30am 28.4 28.8 16.3 47 7.5 ESE 9 17 5 9 1015.6 1015.5 0.0
28/11:00am 28.1 28.1 17.3 52 6.8 E 13 20 7 11 1015.9 1015.8 0.0
28/10:30am 27.1 26.9 16.8 53 6.4 E 13 20 7 11 1016.4 1016.3 0.0
28/10:00am 27.5 27.6 16.5 51 6.8 SE 11 19 6 10 1016.4 1016.3 0.0
28/09:30am 25.4 25.6 16.8 59 5.3 SSW 11 19 6 10 1016.7 1016.6 0.0
28/09:00am 24.8 24.5 16.5 60 5.1 S 13 17 7 9 1016.8 1016.7 0.2
28/08:30am 24.1 23.8 16.4 62 4.7 S 13 19 7 10 1017.0 1016.9 0.2
28/08:00am 22.4 22.8 16.3 68 3.7 SSW 9 15 5 8 1016.9 1016.8 0.2
28/07:30am 20.7 21.7 16.4 76 2.6 WSW 6 9 3 5 1016.7 1016.6 0.2
28/07:00am 18.2 19.3 16.5 90 1.0 WNW 6 9 3 5 1016.5 1016.4 0.2
28/06:30am 17.4 19.4 15.9 91 0.9 CALM 0 0 0 0 1016.3 1016.2 0.2
28/06:00am 17.1 18.9 15.6 91 0.9 CALM 0 0 0 0 1015.9 1015.8 0.2
28/05:30am 17.7 19.5 15.5 87 1.3 CALM 0 0 0 0 1015.8 1015.7 0.2
28/05:00am 18.7 19.9 16.0 84 1.6 SW 4 9 2 5 1015.7 1015.6 0.2
28/04:30am 19.3 20.9 15.9 81 2.0 SW 2 9 1 5 1015.6 1015.5 0.2
28/04:00am 19.3 21.3 16.1 82 1.9 CALM 0 0 0 0 1015.6 1015.5 0.2
28/03:30am 19.0 19.9 16.0 83 1.8 SW 6 9 3 5 1015.5 1015.4 0.2
28/03:00am 17.4 19.2 15.5 89 1.1 CALM 0 0 0 0 1015.7 1015.6 0.2
28/02:30am 17.2 18.9 15.1 87 1.2 CALM 0 0 0 0 1015.7 1015.6 0.2
28/02:00am 17.5 19.4 15.8 90 1.0 CALM 0 0 0 0 1016.0 1015.9 0.2
28/01:30am 17.2 18.9 15.1 87 1.2 CALM 0 0 0 0 1016.1 1016.0 0.2
28/01:00am 18.2 19.2 15.3 83 1.7 SSW 4 7 2 4 1016.7 1016.6 0.2
28/12:30am 18.3 20.1 15.4 83 1.7 CALM 0 0 0 0 1016.8 1016.7 0.2
28/12:00am 17.7 18.3 15.3 86 1.4 SSW 6 7 3 4 1017.2 1017.1 0.2
 
Date/Time
EST
Temp
°C
App
Temp
°C
Dew
Point
°C
Rel
Hum
%
Delta-T
°C
Wind Press
QNH
hPa
Press
MSL
hPa
Rain since
9am
mm
Dir  Spd
km/h
Gust
km/h
Spd
kts
Gust
kts
27/11:30pm 18.3 18.6 15.0 81 1.9 SSW 7 9 4 5 1017.4 1017.3 0.2
27/11:00pm 18.8 19.2 15.4 80 2.0 SSW 7 9 4 5 1017.5 1017.4 0.2
27/10:30pm 19.2 19.6 15.3 78 2.3 SSW 7 9 4 5 1017.5 1017.4 0.2
27/10:00pm 19.5 19.6 15.4 77 2.4 SW 9 11 5 6 1017.6 1017.5 0.2
27/09:30pm 20.0 20.1 15.4 75 2.7 SW 9 9 5 5 1017.5 1017.4 0.2
27/09:00pm 21.1 20.8 15.4 70 3.4 SSE 11 13 6 7 1017.9 1017.8 0.2
27/08:30pm 20.8 21.0 15.8 73 3.0 SSE 9 11 5 6 1017.8 1017.7 0.2
27/08:00pm 20.7 20.0 15.5 72 3.1 S 13 15 7 8 1017.6 1017.5 0.2
27/07:30pm 21.9 21.1 15.2 65 4.0 SSE 13 17 7 9 1017.3 1017.2 0.2
27/07:00pm 23.6 22.3 14.7 57 5.3 SE 15 20 8 11 1017.0 1016.9 0.2
27/06:30pm 24.5 22.2 14.6 54 5.9 SE 20 30 11 16 1016.5 1016.4 0.2
27/06:00pm 25.2 22.9 14.6 51 6.3 SE 20 30 11 16 1016.1 1016.0 0.2
27/05:30pm 26.2 23.6 13.2 44 7.6 ESE 19 26 10 14 1015.8 1015.7 0.2
27/05:00pm 26.6 23.8 12.7 42 8.1 ESE 19 24 10 13 1015.7 1015.6 0.2
27/04:30pm 26.8 24.4 12.7 41 8.2 ESE 17 24 9 13 1015.6 1015.5 0.2
27/04:22pm 26.8 24.0 12.5 41 8.3 ESE 19 26 10 14 1015.6 1015.5 0.2
27/04:00pm 27.0 23.7 12.8 41 8.3 E 22 28 12 15 1015.2 1015.1 0.2
27/03:30pm 27.1 24.4 14.6 46 7.5 ESE 22 32 12 17 1015.0 1014.9 0.2
27/03:00pm 27.8 24.9 13.9 42 8.3 E 22 35 12 19 1014.8 1014.7 0.2
27/02:30pm 28.0 25.6 13.9 42 8.4 E 19 32 10 17 1014.9 1014.8 0.2
27/02:00pm 27.4 25.2 14.8 46 7.6 ESE 20 28 11 15 1015.3 1015.2 0.2
27/01:30pm 28.9 27.2 16.2 46 7.9 E 20 30 11 16 1015.7 1015.6 0.2
27/01:00pm 28.1 25.5 16.9 50 7.0 E 26 37 14 20 1016.0 1015.9 0.2
27/12:30pm 25.3 25.7 18.2 64 4.5 E 13 17 7 9 1016.5 1016.4 0.2
27/12:00pm 28.1 24.7 15.9 47 7.5 E 28 39 15 21 1016.6 1016.5 0.0
27/11:30am 27.7 26.3 14.6 44 7.9 E 15 26 8 14 1016.9 1016.8 0.0
27/11:00am 27.8 26.4 14.5 44 8.0 SE 15 26 8 14 1017.3 1017.2 0.0
27/10:30am 26.4 24.2 14.5 48 7.1 ESE 19 26 10 14 1017.7 1017.6 0.0
27/10:00am 27.5 26.7 15.1 46 7.5 ESE 13 24 7 13 1017.9 1017.8 0.0
27/09:30am 25.5 24.0 15.2 53 6.2 E 17 28 9 15 1018.2 1018.1 0.0
27/09:00am 26.3 24.6 15.8 52 6.4 SE 19 26 10 14 1018.4 1018.3 0.0
27/08:30am 25.3 24.2 16.3 57 5.5 SE 17 30 9 16 1018.3 1018.2 0.0
27/08:00am 23.5 22.4 16.3 64 4.4 S 17 22 9 12 1017.9 1017.8 0.0
27/07:30am 22.0 22.8 17.3 74 2.9 S 9 11 5 6 1017.5 1017.4 0.0
27/07:00am 20.5 22.1 16.9 80 2.2 S 4 6 2 3 1017.3 1017.2 0.0
27/06:30am 20.1 21.4 17.0 82 1.9 S 6 7 3 4 1017.1 1017.0 0.0
27/06:00am 18.4 19.1 16.2 87 1.3 S 7 9 4 5 1016.8 1016.7 0.0
27/05:30am 17.9 18.6 16.0 89 1.1 S 7 11 4 6 1016.6 1016.5 0.0
27/05:00am 18.2 20.4 16.5 90 1.0 CALM 0 0 0 0 1016.4 1016.3 0.0
27/04:30am 18.1 20.1 16.1 88 1.2 CALM 0 0 0 0 1016.0 1015.9 0.0
27/04:00am 17.9 18.6 16.0 89 1.1 SE 7 9 4 5 1015.8 1015.7 0.0
27/03:30am 18.4 20.4 16.0 86 1.4 CALM 0 0 0 0 1015.6 1015.5 0.0
27/03:00am 18.5 18.4 16.0 85 1.5 SW 11 13 6 7 1015.6 1015.5 0.0
27/02:30am 17.5 19.4 15.8 90 1.0 CALM 0 0 0 0 1016.3 1016.2 0.0
27/02:00am 18.5 20.5 16.0 85 1.5 CALM 0 0 0 0 1016.1 1016.0 0.0
27/01:30am 19.4 19.7 15.9 80 2.1 S 9 13 5 7 1016.0 1015.9 0.0
27/01:00am 19.2 19.5 16.0 82 1.9 SSW 9 9 5 5 1016.2 1016.1 0.0
27/12:30am 19.7 20.0 16.0 79 2.2 SSW 9 11 5 6 1016.5 1016.4 0.0
27/12:00am 19.7 20.4 15.7 78 2.4 SSW 6 11 3 6 1016.8 1016.7 0.0
 
Date/Time
EST
Temp
°C
App
Temp
°C
Dew
Point
°C
Rel
Hum
%
Delta-T
°C
Wind Press
QNH
hPa
Press
MSL
hPa
Rain since
9am
mm
Dir  Spd
km/h
Gust
km/h
Spd
kts
Gust
kts
26/11:30pm 20.4 21.2 15.9 75 2.7 SSW 6 9 3 5 1016.9 1016.8 0.0
26/11:00pm 20.5 20.6 15.4 72 3.0 SSE 9 9 5 5 1017.0 1016.9 0.0
26/10:30pm 20.6 20.3 15.4 72 3.1 SSW 11 13 6 7 1017.4 1017.3 0.0
26/10:00pm 21.9 22.4 15.0 65 4.1 S 6 7 3 4 1017.0 1016.9 0.0
26/09:30pm 21.8 22.2 15.4 67 3.8 SE 7 11 4 6 1016.5 1016.4 0.0
26/09:00pm 22.8 22.4 15.1 62 4.6 ESE 11 15 6 8 1017.1 1017.0 0.0
26/08:30pm 23.1 22.6 15.0 60 4.8 ESE 11 13 6 7 1016.9 1016.8 0.0
26/08:00pm 23.6 22.6 14.5 56 5.4 ESE 13 19 7 10 1016.5 1016.4 0.0
26/07:30pm 24.2 23.0 14.0 53 6.0 ESE 13 15 7 8 1016.4 1016.3 0.0
26/07:00pm 25.4 23.4 12.8 45 7.3 SE 15 22 8 12 1016.0 1015.9 0.0
26/06:30pm 26.0 22.9 13.4 45 7.4 ESE 22 30 12 16 1015.1 1015.0 0.0
26/06:00pm 26.8 23.2 13.2 43 8.0 ESE 24 39 13 21 1014.7 1014.6 0.0
26/05:30pm 27.6 24.0 15.3 47 7.5 ESE 28 41 15 22 1014.3 1014.2 0.0
26/05:00pm 27.9 24.5 15.9 48 7.4 E 28 37 15 20 1013.8 1013.7 0.0
26/04:30pm 29.9 27.2 12.8 35 10.1 ESE 19 26 10 14 1013.4 1013.3 0.0
26/04:00pm 30.2 26.5 12.8 34 10.3 SE 24 33 13 18 1013.4 1013.3 0.0
26/03:30pm 31.7 29.2 12.2 30 11.5 SE 17 30 9 16 1013.1 1013.0 0.0
26/03:00pm 31.1 27.6 10.3 27 11.9 SE 19 28 10 15 1013.3 1013.2 0.0
26/02:30pm 31.2 28.0 11.9 30 11.3 SE 20 28 11 15 1013.5 1013.4 0.0
26/02:00pm 31.0 28.2 12.6 32 10.9 SE 19 32 10 17 1013.5 1013.4 0.0
26/01:30pm 31.8 28.8 12.6 31 11.4 SE 20 28 11 15 1014.0 1013.9 0.0
26/01:00pm 30.4 27.5 12.4 33 10.6 SE 19 30 10 16 1014.4 1014.3 0.0
26/12:30pm 30.7 29.0 13.7 35 10.2 SE 15 28 8 15 1014.8 1014.7 0.0
26/12:00pm 29.9 27.4 14.2 38 9.5 SSE 20 30 11 16 1015.0 1014.9 0.0
26/11:30am 29.3 29.1 14.8 41 8.8 SE 9 19 5 10 1015.4 1015.3 0.0
26/11:00am 29.1 27.5 15.0 42 8.6 SSE 17 30 9 16 1015.7 1015.6 0.0
26/10:30am 28.6 26.7 15.8 45 7.9 ESE 20 30 11 16 1015.9 1015.8 0.0
26/10:00am 27.5 25.4 15.3 47 7.4 ESE 20 30 11 16 1016.2 1016.1 0.0
26/09:30am 26.3 26.2 16.0 53 6.3 ESE 11 17 6 9 1016.4 1016.3 0.0
26/09:00am 26.1 26.1 16.2 54 6.1 SSE 11 17 6 9 1016.2 1016.1 0.0
26/08:30am 24.0 25.1 17.0 65 4.3 SSW 7 9 4 5 1016.3 1016.2 0.0
26/08:00am 23.1 24.4 17.1 69 3.7 S 6 9 3 5 1016.2 1016.1 0.0
26/07:30am 22.5 23.4 16.6 69 3.6 SSW 7 9 4 5 1015.5 1015.4 0.0
26/07:00am 21.0 22.2 17.4 80 2.2 NW 7 9 4 5 1015.7 1015.6 0.0
26/06:30am 19.7 22.1 16.9 84 1.7 CALM 0 0 0 0 1015.3 1015.2 0.0
26/06:00am 17.9 20.1 16.6 92 0.8 CALM 0 0 0 0 1015.1 1015.0 0.0
26/05:30am 17.8 19.9 16.3 91 0.9 CALM 0 0 0 0 1014.7 1014.6 0.0
26/05:00am 19.0 19.9 16.7 86 1.4 SW 7 11 4 6 1014.4 1014.3 0.0
26/04:30am 18.5 20.7 16.5 88 1.2 CALM 0 0 0 0 1014.2 1014.1 0.0
26/04:00am 18.9 21.1 16.4 85 1.5 CALM 0 0 0 0 1013.9 1013.8 0.0
26/03:30am 18.8 21.3 17.2 90 1.0 CALM 0 0 0 0 1013.9 1013.8 0.0
26/03:00am 18.7 20.9 16.4 86 1.4 CALM 0 0 0 0 1013.9 1013.8 0.0
26/02:30am 18.3 20.3 16.1 87 1.3 CALM 0 0 0 0 1014.1 1014.0 0.0
26/02:00am 18.9 20.9 16.0 83 1.7 CALM 0 0 0 0 1014.4 1014.3 0.0
26/01:30am 19.3 21.3 16.1 82 1.9 CALM 0 0 0 0 1014.3 1014.2 0.0
26/01:00am 20.3 20.2 16.1 77 2.5 S 11 13 6 7 1014.7 1014.6 0.0
26/12:30am 20.0 21.1 16.7 81 2.0 S 6 11 3 6 1015.1 1015.0 0.0
26/12:00am 20.4 22.3 16.6 79 2.3 S 2 6 1 3 1015.6 1015.5 0.0
 
Date/Time
EST
Temp
°C
App
Temp
°C
Dew
Point
°C
Rel
Hum
%
Delta-T
°C
Wind Press
QNH
hPa
Press
MSL
hPa
Rain since
9am
mm
Dir  Spd
km/h
Gust
km/h
Spd
kts
Gust
kts
25/11:30pm 21.3 22.2 16.5 74 2.9 S 7 9 4 5 1015.9 1015.8 0.0
25/11:00pm 21.2 22.9 16.2 73 3.0 SSE 2 9 1 5 1016.2 1016.1 0.0
25/10:30pm 22.0 22.5 16.6 71 3.3 ENE 9 9 5 5 1016.1 1016.0 0.0
25/10:00pm 22.7 22.5 16.6 68 3.7 ESE 13 17 7 9 1016.4 1016.3 0.0
25/09:30pm 23.0 23.8 17.3 70 3.5 ESE 9 11 5 6 1016.2 1016.1 0.0
25/09:00pm 23.8 23.7 17.0 65 4.2 E 13 17 7 9 1015.8 1015.7 0.0
25/08:30pm 24.4 23.5 16.9 63 4.6 E 17 22 9 12 1015.4 1015.3 0.0
25/08:00pm 24.4 24.2 17.7 66 4.2 ENE 15 19 8 10 1015.0 1014.9 0.0
25/07:30pm 25.1 24.5 17.6 63 4.7 ENE 17 26 9 14 1014.5 1014.4 0.0
25/07:00pm 25.7 24.5 17.4 60 5.2 ENE 20 28 11 15 1014.1 1014.0 0.0
25/06:30pm 26.2 24.7 17.6 59 5.4 NE 22 30 12 16 1013.7 1013.6 0.0

Latest Capital City Observations: Canberra | Sydney | Melbourne | Brisbane | Adelaide | Perth | Hobart | Darwin

Other Formats:

Comma delimited format used in spreadsheet applications
http://www.bom.gov.au/fwo/IDQ60901/IDQ60901.94568.axf

JavaScript Object Notation format (JSON) in row-major order
http://www.bom.gov.au/fwo/IDQ60901/IDQ60901.94568.json